sensor_id;sensor_type;location;lat;lon;timestamp;temperature;humidity
13960;DHT22;7052;51.050;3.716;2024-01-07T00:01:32;4.10;99.90
13960;DHT22;7052;51.050;3.716;2024-01-07T00:04:03;4.10;99.90
13960;DHT22;7052;51.050;3.716;2024-01-07T00:06:30;4.10;99.90
13960;DHT22;7052;51.050;3.716;2024-01-07T00:08:58;4.10;99.90
13960;DHT22;7052;51.050;3.716;2024-01-07T00:11:25;4.10;99.90
13960;DHT22;7052;51.050;3.716;2024-01-07T00:13:53;4.10;99.90
13960;DHT22;7052;51.050;3.716;2024-01-07T00:16:20;4.10;99.90
13960;DHT22;7052;51.050;3.716;2024-01-07T00:18:54;4.00;99.90
13960;DHT22;7052;51.050;3.716;2024-01-07T00:21:21;4.00;99.90
13960;DHT22;7052;51.050;3.716;2024-01-07T00:23:50;3.90;99.90
13960;DHT22;7052;51.050;3.716;2024-01-07T00:26:17;3.90;99.90
13960;DHT22;7052;51.050;3.716;2024-01-07T00:28:45;3.90;99.90
13960;DHT22;7052;51.050;3.716;2024-01-07T00:31:15;3.80;99.90
13960;DHT22;7052;51.050;3.716;2024-01-07T00:33:45;3.80;99.90
13960;DHT22;7052;51.050;3.716;2024-01-07T00:36:16;3.80;99.90
13960;DHT22;7052;51.050;3.716;2024-01-07T00:38:43;3.70;99.90
13960;DHT22;7052;51.050;3.716;2024-01-07T00:41:13;3.70;99.90
13960;DHT22;7052;51.050;3.716;2024-01-07T00:43:40;3.60;99.90
13960;DHT22;7052;51.050;3.716;2024-01-07T00:46:07;3.60;99.90
13960;DHT22;7052;51.050;3.716;2024-01-07T00:48:35;3.60;99.90
13960;DHT22;7052;51.050;3.716;2024-01-07T00:51:03;3.60;99.90
13960;DHT22;7052;51.050;3.716;2024-01-07T00:53:32;3.60;99.90
13960;DHT22;7052;51.050;3.716;2024-01-07T00:55:59;3.50;99.90
13960;DHT22;7052;51.050;3.716;2024-01-07T00:58:27;3.50;99.90
13960;DHT22;7052;51.050;3.716;2024-01-07T01:00:56;3.50;99.90
13960;DHT22;7052;51.050;3.716;2024-01-07T01:03:25;3.50;99.90
13960;DHT22;7052;51.050;3.716;2024-01-07T01:05:54;3.40;99.90
13960;DHT22;7052;51.050;3.716;2024-01-07T01:08:21;3.50;99.90
13960;DHT22;7052;51.050;3.716;2024-01-07T01:10:51;3.50;99.90
13960;DHT22;7052;51.050;3.716;2024-01-07T01:13:18;3.50;99.90
13960;DHT22;7052;51.050;3.716;2024-01-07T01:15:46;3.40;99.90
13960;DHT22;7052;51.050;3.716;2024-01-07T01:18:15;3.40;99.90
13960;DHT22;7052;51.050;3.716;2024-01-07T01:20:43;3.40;99.90
13960;DHT22;7052;51.050;3.716;2024-01-07T01:23:10;3.40;99.90
13960;DHT22;7052;51.050;3.716;2024-01-07T01:25:37;3.40;99.90
13960;DHT22;7052;51.050;3.716;2024-01-07T01:28:10;3.40;99.90
13960;DHT22;7052;51.050;3.716;2024-01-07T01:30:41;3.50;99.90
13960;DHT22;7052;51.050;3.716;2024-01-07T01:33:09;3.60;99.90
13960;DHT22;7052;51.050;3.716;2024-01-07T01:35:38;3.50;99.90
13960;DHT22;7052;51.050;3.716;2024-01-07T01:38:05;3.60;99.90
13960;DHT22;7052;51.050;3.716;2024-01-07T01:40:32;3.70;99.90
13960;DHT22;7052;51.050;3.716;2024-01-07T01:43:00;3.70;99.90
13960;DHT22;7052;51.050;3.716;2024-01-07T01:45:28;3.80;99.90
13960;DHT22;7052;51.050;3.716;2024-01-07T01:47:55;3.80;99.90
13960;DHT22;7052;51.050;3.716;2024-01-07T01:50:23;3.80;99.90
13960;DHT22;7052;51.050;3.716;2024-01-07T01:52:50;3.80;99.90
13960;DHT22;7052;51.050;3.716;2024-01-07T01:55:17;3.90;99.90
13960;DHT22;7052;51.050;3.716;2024-01-07T01:57:53;3.90;99.90
13960;DHT22;7052;51.050;3.716;2024-01-07T02:00:21;3.90;99.90
13960;DHT22;7052;51.050;3.716;2024-01-07T02:02:52;4.00;99.90
13960;DHT22;7052;51.050;3.716;2024-01-07T02:05:19;4.00;99.90
13960;DHT22;7052;51.050;3.716;2024-01-07T02:07:50;4.00;99.90
13960;DHT22;7052;51.050;3.716;2024-01-07T02:10:17;4.00;99.90
13960;DHT22;7052;51.050;3.716;2024-01-07T02:12:45;3.90;99.90
13960;DHT22;7052;51.050;3.716;2024-01-07T02:15:12;3.90;99.90
13960;DHT22;7052;51.050;3.716;2024-01-07T02:17:40;3.90;99.90
13960;DHT22;7052;51.050;3.716;2024-01-07T02:20:11;3.90;99.90
13960;DHT22;7052;51.050;3.716;2024-01-07T02:22:40;3.90;99.90
13960;DHT22;7052;51.050;3.716;2024-01-07T02:25:08;3.80;99.90
13960;DHT22;7052;51.050;3.716;2024-01-07T02:27:35;3.80;99.90
13960;DHT22;7052;51.050;3.716;2024-01-07T02:30:04;3.90;99.90
13960;DHT22;7052;51.050;3.716;2024-01-07T02:32:31;3.90;99.90
13960;DHT22;7052;51.050;3.716;2024-01-07T02:35:00;3.90;99.90
13960;DHT22;7052;51.050;3.716;2024-01-07T02:37:31;3.90;99.90
13960;DHT22;7052;51.050;3.716;2024-01-07T02:40:00;3.90;99.90
13960;DHT22;7052;51.050;3.716;2024-01-07T02:42:31;4.00;99.90
13960;DHT22;7052;51.050;3.716;2024-01-07T02:44:59;4.00;99.90
13960;DHT22;7052;51.050;3.716;2024-01-07T02:47:26;3.90;99.90
13960;DHT22;7052;51.050;3.716;2024-01-07T02:49:55;3.90;99.90
13960;DHT22;7052;51.050;3.716;2024-01-07T02:52:23;3.90;99.90
13960;DHT22;7052;51.050;3.716;2024-01-07T02:54:50;3.80;99.90
13960;DHT22;7052;51.050;3.716;2024-01-07T02:57:21;3.90;99.90
13960;DHT22;7052;51.050;3.716;2024-01-07T02:59:49;3.80;99.90
13960;DHT22;7052;51.050;3.716;2024-01-07T03:02:17;3.80;99.90
13960;DHT22;7052;51.050;3.716;2024-01-07T03:04:45;3.80;99.90
13960;DHT22;7052;51.050;3.716;2024-01-07T03:07:12;3.80;99.90
13960;DHT22;7052;51.050;3.716;2024-01-07T03:09:40;3.80;99.90
13960;DHT22;7052;51.050;3.716;2024-01-07T03:12:10;3.80;99.90
13960;DHT22;7052;51.050;3.716;2024-01-07T03:14:37;3.80;99.90
13960;DHT22;7052;51.050;3.716;2024-01-07T03:17:05;3.80;99.90
13960;DHT22;7052;51.050;3.716;2024-01-07T03:19:32;3.80;99.90
13960;DHT22;7052;51.050;3.716;2024-01-07T03:22:01;3.80;99.90
13960;DHT22;7052;51.050;3.716;2024-01-07T03:24:28;3.80;99.90
13960;DHT22;7052;51.050;3.716;2024-01-07T03:26:55;3.80;99.90
13960;DHT22;7052;51.050;3.716;2024-01-07T03:29:22;3.80;99.90
13960;DHT22;7052;51.050;3.716;2024-01-07T03:31:50;3.80;99.90
13960;DHT22;7052;51.050;3.716;2024-01-07T03:34:20;3.90;99.90
13960;DHT22;7052;51.050;3.716;2024-01-07T03:36:47;3.80;99.90
13960;DHT22;7052;51.050;3.716;2024-01-07T03:39:15;3.90;99.90
13960;DHT22;7052;51.050;3.716;2024-01-07T03:41:45;3.80;99.90
13960;DHT22;7052;51.050;3.716;2024-01-07T03:44:12;3.90;99.90
13960;DHT22;7052;51.050;3.716;2024-01-07T03:46:39;3.90;99.90
13960;DHT22;7052;51.050;3.716;2024-01-07T03:49:07;3.90;99.90
13960;DHT22;7052;51.050;3.716;2024-01-07T03:51:35;3.80;99.90
13960;DHT22;7052;51.050;3.716;2024-01-07T03:54:04;3.90;99.90
13960;DHT22;7052;51.050;3.716;2024-01-07T03:56:32;3.90;99.90
13960;DHT22;7052;51.050;3.716;2024-01-07T03:58:59;3.90;99.90
13960;DHT22;7052;51.050;3.716;2024-01-07T04:01:26;3.90;99.90
13960;DHT22;7052;51.050;3.716;2024-01-07T04:03:54;3.90;99.90
13960;DHT22;7052;51.050;3.716;2024-01-07T04:06:21;3.90;99.90
13960;DHT22;7052;51.050;3.716;2024-01-07T04:08:51;3.90;99.90
13960;DHT22;7052;51.050;3.716;2024-01-07T04:11:19;3.90;99.90
13960;DHT22;7052;51.050;3.716;2024-01-07T04:13:49;3.80;99.90
13960;DHT22;7052;51.050;3.716;2024-01-07T04:16:16;3.90;99.90
13960;DHT22;7052;51.050;3.716;2024-01-07T04:18:45;3.80;99.90
13960;DHT22;7052;51.050;3.716;2024-01-07T04:21:13;3.70;99.90
13960;DHT22;7052;51.050;3.716;2024-01-07T04:23:40;3.80;99.90
13960;DHT22;7052;51.050;3.716;2024-01-07T04:26:10;3.70;99.90
13960;DHT22;7052;51.050;3.716;2024-01-07T04:28:41;3.70;99.90
13960;DHT22;7052;51.050;3.716;2024-01-07T04:31:08;3.60;99.90
13960;DHT22;7052;51.050;3.716;2024-01-07T04:33:36;3.60;99.90
13960;DHT22;7052;51.050;3.716;2024-01-07T04:36:03;3.50;99.90
13960;DHT22;7052;51.050;3.716;2024-01-07T04:38:30;3.60;99.90
13960;DHT22;7052;51.050;3.716;2024-01-07T04:40:58;3.60;99.90
13960;DHT22;7052;51.050;3.716;2024-01-07T04:43:26;3.60;99.90
13960;DHT22;7052;51.050;3.716;2024-01-07T04:45:53;3.60;99.90
13960;DHT22;7052;51.050;3.716;2024-01-07T04:48:20;3.60;99.90
13960;DHT22;7052;51.050;3.716;2024-01-07T04:50:48;3.60;99.90
13960;DHT22;7052;51.050;3.716;2024-01-07T04:53:18;3.60;99.90
13960;DHT22;7052;51.050;3.716;2024-01-07T04:55:45;3.50;99.90
13960;DHT22;7052;51.050;3.716;2024-01-07T04:58:12;3.50;99.90
13960;DHT22;7052;51.050;3.716;2024-01-07T05:00:40;3.60;99.90
13960;DHT22;7052;51.050;3.716;2024-01-07T05:03:09;3.60;99.90
13960;DHT22;7052;51.050;3.716;2024-01-07T05:05:37;3.50;99.90
13960;DHT22;7052;51.050;3.716;2024-01-07T05:08:04;3.50;99.90
13960;DHT22;7052;51.050;3.716;2024-01-07T05:10:31;3.50;99.90
13960;DHT22;7052;51.050;3.716;2024-01-07T05:13:00;3.50;99.90
13960;DHT22;7052;51.050;3.716;2024-01-07T05:15:32;3.40;99.90
13960;DHT22;7052;51.050;3.716;2024-01-07T05:18:00;3.50;99.90
13960;DHT22;7052;51.050;3.716;2024-01-07T05:20:28;3.50;99.90
13960;DHT22;7052;51.050;3.716;2024-01-07T05:22:55;3.50;99.90
13960;DHT22;7052;51.050;3.716;2024-01-07T05:25:23;3.40;99.90
13960;DHT22;7052;51.050;3.716;2024-01-07T05:27:50;3.40;99.90
13960;DHT22;7052;51.050;3.716;2024-01-07T05:30:17;3.40;99.90
13960;DHT22;7052;51.050;3.716;2024-01-07T05:32:44;3.40;99.90
13960;DHT22;7052;51.050;3.716;2024-01-07T05:35:12;3.40;99.90
13960;DHT22;7052;51.050;3.716;2024-01-07T05:37:39;3.30;99.90
13960;DHT22;7052;51.050;3.716;2024-01-07T05:40:08;3.30;99.90
13960;DHT22;7052;51.050;3.716;2024-01-07T05:42:35;3.30;99.90
13960;DHT22;7052;51.050;3.716;2024-01-07T05:45:01;3.30;99.90
13960;DHT22;7052;51.050;3.716;2024-01-07T05:47:29;3.20;99.90
13960;DHT22;7052;51.050;3.716;2024-01-07T05:49:56;3.30;99.90
13960;DHT22;7052;51.050;3.716;2024-01-07T05:52:24;3.20;99.90
13960;DHT22;7052;51.050;3.716;2024-01-07T05:54:52;3.30;99.90
13960;DHT22;7052;51.050;3.716;2024-01-07T05:57:21;3.20;99.90
13960;DHT22;7052;51.050;3.716;2024-01-07T05:59:48;3.20;99.90
13960;DHT22;7052;51.050;3.716;2024-01-07T06:02:16;3.20;99.90
13960;DHT22;7052;51.050;3.716;2024-01-07T06:04:43;3.20;99.90
13960;DHT22;7052;51.050;3.716;2024-01-07T06:07:13;3.20;99.90
13960;DHT22;7052;51.050;3.716;2024-01-07T06:09:42;3.20;99.90
13960;DHT22;7052;51.050;3.716;2024-01-07T06:12:09;3.20;99.90
13960;DHT22;7052;51.050;3.716;2024-01-07T06:14:35;3.20;99.90
13960;DHT22;7052;51.050;3.716;2024-01-07T06:17:03;3.20;99.90
13960;DHT22;7052;51.050;3.716;2024-01-07T06:19:30;3.20;99.90
13960;DHT22;7052;51.050;3.716;2024-01-07T06:21:57;3.30;99.90
13960;DHT22;7052;51.050;3.716;2024-01-07T06:24:25;3.30;99.90
13960;DHT22;7052;51.050;3.716;2024-01-07T06:26:53;3.20;99.90
13960;DHT22;7052;51.050;3.716;2024-01-07T06:29:20;3.30;99.90
13960;DHT22;7052;51.050;3.716;2024-01-07T06:31:51;3.20;99.90
13960;DHT22;7052;51.050;3.716;2024-01-07T06:34:18;3.20;99.90
13960;DHT22;7052;51.050;3.716;2024-01-07T06:36:45;3.20;99.90
13960;DHT22;7052;51.050;3.716;2024-01-07T06:39:12;3.20;99.90
13960;DHT22;7052;51.050;3.716;2024-01-07T06:41:39;3.20;99.90
13960;DHT22;7052;51.050;3.716;2024-01-07T06:44:09;3.20;99.90
13960;DHT22;7052;51.050;3.716;2024-01-07T06:46:37;3.20;99.90
13960;DHT22;7052;51.050;3.716;2024-01-07T06:49:06;3.30;99.90
13960;DHT22;7052;51.050;3.716;2024-01-07T06:51:34;3.20;99.90
13960;DHT22;7052;51.050;3.716;2024-01-07T06:54:01;3.20;99.90
13960;DHT22;7052;51.050;3.716;2024-01-07T06:56:28;3.20;99.90
13960;DHT22;7052;51.050;3.716;2024-01-07T06:58:58;3.20;99.90
13960;DHT22;7052;51.050;3.716;2024-01-07T07:01:27;3.20;99.90
13960;DHT22;7052;51.050;3.716;2024-01-07T07:03:53;3.20;99.90
13960;DHT22;7052;51.050;3.716;2024-01-07T07:06:22;3.20;99.90
13960;DHT22;7052;51.050;3.716;2024-01-07T07:08:50;3.20;99.90
13960;DHT22;7052;51.050;3.716;2024-01-07T07:11:17;3.20;99.90
13960;DHT22;7052;51.050;3.716;2024-01-07T07:13:45;3.10;99.90
13960;DHT22;7052;51.050;3.716;2024-01-07T07:16:12;3.10;99.90
13960;DHT22;7052;51.050;3.716;2024-01-07T07:18:40;3.10;99.90
13960;DHT22;7052;51.050;3.716;2024-01-07T07:21:09;3.10;99.90
13960;DHT22;7052;51.050;3.716;2024-01-07T07:23:41;3.10;99.90
13960;DHT22;7052;51.050;3.716;2024-01-07T07:26:09;3.20;99.90
13960;DHT22;7052;51.050;3.716;2024-01-07T07:28:36;3.10;99.90
13960;DHT22;7052;51.050;3.716;2024-01-07T07:31:03;3.10;99.90
13960;DHT22;7052;51.050;3.716;2024-01-07T07:33:31;3.10;99.90
13960;DHT22;7052;51.050;3.716;2024-01-07T07:35:59;3.10;99.90
13960;DHT22;7052;51.050;3.716;2024-01-07T07:38:26;3.10;99.90
13960;DHT22;7052;51.050;3.716;2024-01-07T07:40:57;3.10;99.90
13960;DHT22;7052;51.050;3.716;2024-01-07T07:43:25;3.10;99.90
13960;DHT22;7052;51.050;3.716;2024-01-07T07:45:55;3.10;99.90
13960;DHT22;7052;51.050;3.716;2024-01-07T07:48:22;3.10;99.90
13960;DHT22;7052;51.050;3.716;2024-01-07T07:50:53;3.10;99.90
13960;DHT22;7052;51.050;3.716;2024-01-07T07:53:24;3.20;99.90
13960;DHT22;7052;51.050;3.716;2024-01-07T07:55:51;3.20;99.90
13960;DHT22;7052;51.050;3.716;2024-01-07T07:58:21;3.20;99.90
13960;DHT22;7052;51.050;3.716;2024-01-07T08:00:48;3.10;99.90
13960;DHT22;7052;51.050;3.716;2024-01-07T08:03:16;3.10;99.90
13960;DHT22;7052;51.050;3.716;2024-01-07T08:05:43;3.10;99.90
13960;DHT22;7052;51.050;3.716;2024-01-07T08:08:10;3.10;99.90
13960;DHT22;7052;51.050;3.716;2024-01-07T08:10:38;3.10;99.90
13960;DHT22;7052;51.050;3.716;2024-01-07T08:13:06;3.10;99.90
13960;DHT22;7052;51.050;3.716;2024-01-07T08:15:34;3.20;99.90
13960;DHT22;7052;51.050;3.716;2024-01-07T08:18:03;3.10;99.90
13960;DHT22;7052;51.050;3.716;2024-01-07T08:20:30;3.10;99.90
13960;DHT22;7052;51.050;3.716;2024-01-07T08:22:57;3.10;99.90
13960;DHT22;7052;51.050;3.716;2024-01-07T08:25:26;3.10;99.90
13960;DHT22;7052;51.050;3.716;2024-01-07T08:27:55;3.10;99.90
13960;DHT22;7052;51.050;3.716;2024-01-07T08:30:22;3.10;99.90
13960;DHT22;7052;51.050;3.716;2024-01-07T08:32:49;3.10;99.90
13960;DHT22;7052;51.050;3.716;2024-01-07T08:35:16;3.20;99.90
13960;DHT22;7052;51.050;3.716;2024-01-07T08:37:43;3.10;99.90
13960;DHT22;7052;51.050;3.716;2024-01-07T08:40:12;3.10;99.90
13960;DHT22;7052;51.050;3.716;2024-01-07T08:42:40;3.10;99.90
13960;DHT22;7052;51.050;3.716;2024-01-07T08:45:10;3.10;99.90
13960;DHT22;7052;51.050;3.716;2024-01-07T08:47:39;3.10;99.90
13960;DHT22;7052;51.050;3.716;2024-01-07T08:50:08;3.10;99.90
13960;DHT22;7052;51.050;3.716;2024-01-07T08:52:38;3.00;99.90
13960;DHT22;7052;51.050;3.716;2024-01-07T08:55:06;3.10;99.90
13960;DHT22;7052;51.050;3.716;2024-01-07T08:57:35;3.10;99.90
13960;DHT22;7052;51.050;3.716;2024-01-07T09:00:04;3.20;99.90
13960;DHT22;7052;51.050;3.716;2024-01-07T09:02:34;3.20;99.90
13960;DHT22;7052;51.050;3.716;2024-01-07T09:05:01;3.30;99.90
13960;DHT22;7052;51.050;3.716;2024-01-07T09:07:28;3.30;99.90
13960;DHT22;7052;51.050;3.716;2024-01-07T09:09:55;3.20;99.90
13960;DHT22;7052;51.050;3.716;2024-01-07T09:12:26;3.10;99.90
13960;DHT22;7052;51.050;3.716;2024-01-07T09:14:54;3.10;99.90
13960;DHT22;7052;51.050;3.716;2024-01-07T09:17:22;3.10;99.90
13960;DHT22;7052;51.050;3.716;2024-01-07T09:19:53;3.10;99.90
13960;DHT22;7052;51.050;3.716;2024-01-07T09:22:22;3.10;99.90
13960;DHT22;7052;51.050;3.716;2024-01-07T09:24:49;3.10;99.90
13960;DHT22;7052;51.050;3.716;2024-01-07T09:27:20;3.10;99.90
13960;DHT22;7052;51.050;3.716;2024-01-07T09:29:47;3.10;99.90
13960;DHT22;7052;51.050;3.716;2024-01-07T09:32:14;3.10;99.90
13960;DHT22;7052;51.050;3.716;2024-01-07T09:34:41;3.10;99.90
13960;DHT22;7052;51.050;3.716;2024-01-07T09:37:11;3.10;99.90
13960;DHT22;7052;51.050;3.716;2024-01-07T09:39:39;3.20;99.90
13960;DHT22;7052;51.050;3.716;2024-01-07T09:42:12;3.10;99.90
13960;DHT22;7052;51.050;3.716;2024-01-07T09:44:42;3.30;99.90
13960;DHT22;7052;51.050;3.716;2024-01-07T09:47:12;3.20;99.90
13960;DHT22;7052;51.050;3.716;2024-01-07T09:49:39;3.20;99.90
13960;DHT22;7052;51.050;3.716;2024-01-07T09:52:08;3.30;99.90
13960;DHT22;7052;51.050;3.716;2024-01-07T09:54:39;3.30;99.90
13960;DHT22;7052;51.050;3.716;2024-01-07T09:57:08;3.30;99.90
13960;DHT22;7052;51.050;3.716;2024-01-07T09:59:36;3.30;99.90
13960;DHT22;7052;51.050;3.716;2024-01-07T10:02:05;3.30;99.90
13960;DHT22;7052;51.050;3.716;2024-01-07T10:04:32;3.30;99.90
13960;DHT22;7052;51.050;3.716;2024-01-07T10:07:02;3.20;99.90
13960;DHT22;7052;51.050;3.716;2024-01-07T10:09:32;3.30;99.90
13960;DHT22;7052;51.050;3.716;2024-01-07T10:12:04;3.20;99.90
13960;DHT22;7052;51.050;3.716;2024-01-07T10:14:32;3.20;99.90
13960;DHT22;7052;51.050;3.716;2024-01-07T10:17:01;3.20;99.90
13960;DHT22;7052;51.050;3.716;2024-01-07T10:19:35;3.20;99.90
13960;DHT22;7052;51.050;3.716;2024-01-07T10:22:05;3.20;99.90
13960;DHT22;7052;51.050;3.716;2024-01-07T10:24:36;3.10;99.90
13960;DHT22;7052;51.050;3.716;2024-01-07T10:27:07;3.10;99.90
13960;DHT22;7052;51.050;3.716;2024-01-07T10:29:34;3.10;99.90
13960;DHT22;7052;51.050;3.716;2024-01-07T10:32:02;3.10;99.90
13960;DHT22;7052;51.050;3.716;2024-01-07T10:34:32;3.20;99.90
13960;DHT22;7052;51.050;3.716;2024-01-07T10:37:01;3.20;99.90
13960;DHT22;7052;51.050;3.716;2024-01-07T10:39:28;3.20;99.90
13960;DHT22;7052;51.050;3.716;2024-01-07T10:41:56;3.30;99.90
13960;DHT22;7052;51.050;3.716;2024-01-07T10:44:29;3.30;99.90
13960;DHT22;7052;51.050;3.716;2024-01-07T10:46:59;3.30;99.90
13960;DHT22;7052;51.050;3.716;2024-01-07T10:49:27;3.30;99.90
13960;DHT22;7052;51.050;3.716;2024-01-07T10:52:02;3.40;99.90
13960;DHT22;7052;51.050;3.716;2024-01-07T10:54:31;3.40;99.90
13960;DHT22;7052;51.050;3.716;2024-01-07T10:57:06;3.40;99.90
13960;DHT22;7052;51.050;3.716;2024-01-07T10:59:37;3.40;99.90
13960;DHT22;7052;51.050;3.716;2024-01-07T11:02:04;3.40;99.90
13960;DHT22;7052;51.050;3.716;2024-01-07T11:04:40;3.50;99.90
13960;DHT22;7052;51.050;3.716;2024-01-07T11:07:18;3.50;99.90
13960;DHT22;7052;51.050;3.716;2024-01-07T11:09:54;3.50;99.90
13960;DHT22;7052;51.050;3.716;2024-01-07T11:12:23;3.50;99.90
13960;DHT22;7052;51.050;3.716;2024-01-07T11:14:51;3.40;99.90
13960;DHT22;7052;51.050;3.716;2024-01-07T11:17:43;3.40;99.90
13960;DHT22;7052;51.050;3.716;2024-01-07T11:20:19;3.40;99.90
13960;DHT22;7052;51.050;3.716;2024-01-07T11:22:48;3.40;99.90
13960;DHT22;7052;51.050;3.716;2024-01-07T11:25:36;3.40;99.90
13960;DHT22;7052;51.050;3.716;2024-01-07T11:28:05;3.30;99.90
13960;DHT22;7052;51.050;3.716;2024-01-07T11:30:39;3.30;99.90
13960;DHT22;7052;51.050;3.716;2024-01-07T11:33:11;3.30;99.90
13960;DHT22;7052;51.050;3.716;2024-01-07T11:35:59;3.30;99.90
13960;DHT22;7052;51.050;3.716;2024-01-07T11:38:29;3.30;99.90
13960;DHT22;7052;51.050;3.716;2024-01-07T11:40:57;3.30;99.90
13960;DHT22;7052;51.050;3.716;2024-01-07T11:43:24;3.30;99.90
13960;DHT22;7052;51.050;3.716;2024-01-07T11:45:53;3.30;99.90
13960;DHT22;7052;51.050;3.716;2024-01-07T11:48:20;3.20;99.90
13960;DHT22;7052;51.050;3.716;2024-01-07T11:50:47;3.20;99.90
13960;DHT22;7052;51.050;3.716;2024-01-07T11:53:14;3.20;99.90
13960;DHT22;7052;51.050;3.716;2024-01-07T11:55:42;3.20;99.90
13960;DHT22;7052;51.050;3.716;2024-01-07T11:58:10;3.10;99.90
13960;DHT22;7052;51.050;3.716;2024-01-07T12:00:38;3.10;99.90
13960;DHT22;7052;51.050;3.716;2024-01-07T12:03:06;3.10;99.90
13960;DHT22;7052;51.050;3.716;2024-01-07T12:05:34;3.10;99.90
13960;DHT22;7052;51.050;3.716;2024-01-07T12:08:01;3.00;99.90
13960;DHT22;7052;51.050;3.716;2024-01-07T12:10:31;3.00;99.90
13960;DHT22;7052;51.050;3.716;2024-01-07T12:12:59;3.00;99.90
13960;DHT22;7052;51.050;3.716;2024-01-07T12:15:26;2.90;99.90
13960;DHT22;7052;51.050;3.716;2024-01-07T12:17:59;3.00;99.90
13960;DHT22;7052;51.050;3.716;2024-01-07T12:20:30;3.00;99.90
13960;DHT22;7052;51.050;3.716;2024-01-07T12:23:05;3.00;99.90
13960;DHT22;7052;51.050;3.716;2024-01-07T12:25:35;3.10;99.90
13960;DHT22;7052;51.050;3.716;2024-01-07T12:28:03;3.10;99.90
13960;DHT22;7052;51.050;3.716;2024-01-07T12:30:33;3.20;99.90
13960;DHT22;7052;51.050;3.716;2024-01-07T12:33:04;3.20;99.90
13960;DHT22;7052;51.050;3.716;2024-01-07T12:35:34;3.20;99.90
13960;DHT22;7052;51.050;3.716;2024-01-07T12:38:02;3.20;99.90
13960;DHT22;7052;51.050;3.716;2024-01-07T12:40:29;3.20;99.90
13960;DHT22;7052;51.050;3.716;2024-01-07T12:42:58;3.30;99.90
13960;DHT22;7052;51.050;3.716;2024-01-07T12:45:24;3.30;99.90
13960;DHT22;7052;51.050;3.716;2024-01-07T12:47:54;3.30;99.90
13960;DHT22;7052;51.050;3.716;2024-01-07T12:50:24;3.40;99.90
13960;DHT22;7052;51.050;3.716;2024-01-07T12:52:55;3.40;99.90
13960;DHT22;7052;51.050;3.716;2024-01-07T12:55:24;3.40;99.90
13960;DHT22;7052;51.050;3.716;2024-01-07T12:57:52;3.40;99.90
13960;DHT22;7052;51.050;3.716;2024-01-07T13:00:20;3.40;99.90
13960;DHT22;7052;51.050;3.716;2024-01-07T13:02:52;3.40;99.90
13960;DHT22;7052;51.050;3.716;2024-01-07T13:05:19;3.30;99.90
13960;DHT22;7052;51.050;3.716;2024-01-07T13:07:47;3.30;99.90
13960;DHT22;7052;51.050;3.716;2024-01-07T13:10:16;3.30;99.90
13960;DHT22;7052;51.050;3.716;2024-01-07T13:12:47;3.30;99.90
13960;DHT22;7052;51.050;3.716;2024-01-07T13:15:16;3.30;99.90
13960;DHT22;7052;51.050;3.716;2024-01-07T13:17:43;3.30;99.90
13960;DHT22;7052;51.050;3.716;2024-01-07T13:20:10;3.30;99.90
13960;DHT22;7052;51.050;3.716;2024-01-07T13:22:38;3.30;99.90
13960;DHT22;7052;51.050;3.716;2024-01-07T13:25:09;3.30;99.90
13960;DHT22;7052;51.050;3.716;2024-01-07T13:27:40;3.20;99.90
13960;DHT22;7052;51.050;3.716;2024-01-07T13:30:09;3.20;99.90
13960;DHT22;7052;51.050;3.716;2024-01-07T13:32:38;3.10;99.90
13960;DHT22;7052;51.050;3.716;2024-01-07T13:35:07;3.20;99.90
13960;DHT22;7052;51.050;3.716;2024-01-07T13:37:36;3.10;99.90
13960;DHT22;7052;51.050;3.716;2024-01-07T13:40:04;3.10;99.90
13960;DHT22;7052;51.050;3.716;2024-01-07T13:42:33;3.00;99.90
13960;DHT22;7052;51.050;3.716;2024-01-07T13:45:02;3.10;99.90
13960;DHT22;7052;51.050;3.716;2024-01-07T13:47:30;3.10;99.90
13960;DHT22;7052;51.050;3.716;2024-01-07T13:49:57;3.20;99.90
13960;DHT22;7052;51.050;3.716;2024-01-07T13:52:25;3.20;99.90
13960;DHT22;7052;51.050;3.716;2024-01-07T13:54:56;3.20;99.40
13960;DHT22;7052;51.050;3.716;2024-01-07T13:57:24;3.20;99.90
13960;DHT22;7052;51.050;3.716;2024-01-07T13:59:53;3.20;99.90
13960;DHT22;7052;51.050;3.716;2024-01-07T14:02:22;3.10;99.90
13960;DHT22;7052;51.050;3.716;2024-01-07T14:04:49;3.10;99.90
13960;DHT22;7052;51.050;3.716;2024-01-07T14:07:17;3.10;99.90
13960;DHT22;7052;51.050;3.716;2024-01-07T14:09:46;3.10;99.90
13960;DHT22;7052;51.050;3.716;2024-01-07T14:12:13;3.10;99.90
13960;DHT22;7052;51.050;3.716;2024-01-07T14:14:39;3.10;99.80
13960;DHT22;7052;51.050;3.716;2024-01-07T14:17:06;3.00;99.90
13960;DHT22;7052;51.050;3.716;2024-01-07T14:19:36;3.00;99.90
13960;DHT22;7052;51.050;3.716;2024-01-07T14:22:03;3.00;99.90
13960;DHT22;7052;51.050;3.716;2024-01-07T14:24:32;3.00;99.90
13960;DHT22;7052;51.050;3.716;2024-01-07T14:26:59;3.00;99.60
13960;DHT22;7052;51.050;3.716;2024-01-07T14:29:28;2.90;99.90
13960;DHT22;7052;51.050;3.716;2024-01-07T14:31:55;2.90;99.90
13960;DHT22;7052;51.050;3.716;2024-01-07T14:34:22;2.90;99.90
13960;DHT22;7052;51.050;3.716;2024-01-07T14:36:53;2.90;99.90
13960;DHT22;7052;51.050;3.716;2024-01-07T14:39:23;2.80;99.90
13960;DHT22;7052;51.050;3.716;2024-01-07T14:41:51;2.80;99.90
13960;DHT22;7052;51.050;3.716;2024-01-07T14:44:20;2.80;99.90
13960;DHT22;7052;51.050;3.716;2024-01-07T14:46:47;2.80;99.90
13960;DHT22;7052;51.050;3.716;2024-01-07T14:49:16;2.80;99.90
13960;DHT22;7052;51.050;3.716;2024-01-07T14:54:28;2.90;99.90
13960;DHT22;7052;51.050;3.716;2024-01-07T14:56:58;2.90;99.90
13960;DHT22;7052;51.050;3.716;2024-01-07T14:59:25;2.90;99.90
13960;DHT22;7052;51.050;3.716;2024-01-07T15:01:53;2.90;99.90
13960;DHT22;7052;51.050;3.716;2024-01-07T15:04:21;2.90;99.90
13960;DHT22;7052;51.050;3.716;2024-01-07T15:06:48;2.80;99.90
13960;DHT22;7052;51.050;3.716;2024-01-07T15:09:15;2.80;99.90
13960;DHT22;7052;51.050;3.716;2024-01-07T15:11:45;2.80;99.90
13960;DHT22;7052;51.050;3.716;2024-01-07T15:14:14;2.80;99.90
13960;DHT22;7052;51.050;3.716;2024-01-07T15:16:41;2.80;99.90
13960;DHT22;7052;51.050;3.716;2024-01-07T15:19:09;2.80;99.90
13960;DHT22;7052;51.050;3.716;2024-01-07T15:21:36;2.70;99.90
13960;DHT22;7052;51.050;3.716;2024-01-07T15:24:04;2.70;99.60
13960;DHT22;7052;51.050;3.716;2024-01-07T15:26:32;2.70;99.40
13960;DHT22;7052;51.050;3.716;2024-01-07T15:29:01;2.70;98.60
13960;DHT22;7052;51.050;3.716;2024-01-07T15:31:29;2.70;98.30
13960;DHT22;7052;51.050;3.716;2024-01-07T15:33:56;2.70;97.50
13960;DHT22;7052;51.050;3.716;2024-01-07T15:36:23;2.50;97.70
13960;DHT22;7052;51.050;3.716;2024-01-07T15:38:50;2.50;97.20
13960;DHT22;7052;51.050;3.716;2024-01-07T15:41:17;2.50;97.40
13960;DHT22;7052;51.050;3.716;2024-01-07T15:43:44;2.50;97.70
13960;DHT22;7052;51.050;3.716;2024-01-07T15:46:13;2.50;97.40
13960;DHT22;7052;51.050;3.716;2024-01-07T15:48:40;2.50;95.90
13960;DHT22;7052;51.050;3.716;2024-01-07T15:51:09;2.50;95.70
13960;DHT22;7052;51.050;3.716;2024-01-07T15:53:38;3.00;94.60
13960;DHT22;7052;51.050;3.716;2024-01-07T15:56:06;2.50;93.60
13960;DHT22;7052;51.050;3.716;2024-01-07T15:58:35;2.50;93.50
13960;DHT22;7052;51.050;3.716;2024-01-07T16:01:03;2.50;92.70
13960;DHT22;7052;51.050;3.716;2024-01-07T16:03:32;2.50;92.50
13960;DHT22;7052;51.050;3.716;2024-01-07T16:06:02;2.40;92.20
13960;DHT22;7052;51.050;3.716;2024-01-07T16:08:29;2.40;92.00
13960;DHT22;7052;51.050;3.716;2024-01-07T16:10:58;2.40;91.60
13960;DHT22;7052;51.050;3.716;2024-01-07T16:13:25;2.30;91.70